createdAt,value
2023-05-07T00:01:29.387Z,16.30
2023-05-07T00:03:57.676Z,16.30
2023-05-07T00:06:27.654Z,16.30
2023-05-07T00:08:58.128Z,16.30
2023-05-07T00:11:26.800Z,16.30
2023-05-07T00:13:55.104Z,16.30
2023-05-07T00:16:23.469Z,16.20
2023-05-07T00:18:51.948Z,16.30
2023-05-07T00:21:20.747Z,16.30
2023-05-07T00:23:49.377Z,16.30
2023-05-07T00:26:19.347Z,16.30
2023-05-07T00:28:47.629Z,16.30
2023-05-07T00:31:15.950Z,16.30
2023-05-07T00:33:44.723Z,16.30
2023-05-07T00:36:12.898Z,16.20
2023-05-07T00:38:41.533Z,16.20
2023-05-07T00:41:09.762Z,16.20
2023-05-07T00:43:39.756Z,16.30
2023-05-07T00:46:08.466Z,16.20
2023-05-07T00:48:36.827Z,16.20
2023-05-07T00:51:05.566Z,16.20
2023-05-07T00:53:33.824Z,16.20
2023-05-07T00:56:03.330Z,16.20
2023-05-07T00:58:32.363Z,16.20
2023-05-07T01:01:02.366Z,16.20
2023-05-07T01:03:30.844Z,16.20
2023-05-07T01:06:00.756Z,16.10
2023-05-07T01:08:31.561Z,16.10
2023-05-07T01:11:00.421Z,16.10
2023-05-07T01:13:29.973Z,16.10
2023-05-07T01:15:58.310Z,16.10
2023-05-07T01:18:28.310Z,16.10
2023-05-07T01:20:58.972Z,16.10
2023-05-07T01:23:30.129Z,16.10
2023-05-07T01:25:58.946Z,16.10
2023-05-07T01:28:27.883Z,16.00
2023-05-07T01:31:02.562Z,16.10
2023-05-07T01:33:34.120Z,16.10
2023-05-07T01:36:04.626Z,16.10
2023-05-07T01:38:35.078Z,16.10
2023-05-07T01:41:03.847Z,16.10
2023-05-07T01:43:33.047Z,16.20
2023-05-07T01:46:01.863Z,16.10
2023-05-07T01:48:31.032Z,16.20
2023-05-07T01:51:00.034Z,16.20
2023-05-07T01:53:29.643Z,16.10
2023-05-07T01:55:59.263Z,16.10
2023-05-07T01:58:27.502Z,16.10
2023-05-07T02:00:55.783Z,16.10
2023-05-07T02:03:24.259Z,16.10
2023-05-07T02:05:52.868Z,16.10
2023-05-07T02:08:21.096Z,16.10
2023-05-07T02:10:51.126Z,16.10
2023-05-07T02:13:20.930Z,16.10
2023-05-07T02:15:51.715Z,16.10
2023-05-07T02:18:20.067Z,16.10
2023-05-07T02:20:48.601Z,16.00
2023-05-07T02:23:17.435Z,16.00
2023-05-07T02:25:46.552Z,16.00
2023-05-07T02:28:15.227Z,16.00
2023-05-07T02:30:44.886Z,15.90
2023-05-07T02:33:14.920Z,15.90
2023-05-07T02:35:43.335Z,15.90
2023-05-07T02:38:12.247Z,15.90
2023-05-07T02:40:41.093Z,15.80
2023-05-07T02:43:10.647Z,15.90
2023-05-07T02:45:39.420Z,15.80
2023-05-07T02:48:09.918Z,15.80
2023-05-07T02:50:38.203Z,15.80
2023-05-07T02:53:06.901Z,15.80
2023-05-07T02:55:35.385Z,15.70
2023-05-07T02:58:04.768Z,15.80
2023-05-07T03:00:33.071Z,15.80
2023-05-07T03:03:01.374Z,15.80
2023-05-07T03:05:31.258Z,15.80
2023-05-07T03:07:59.519Z,15.80
2023-05-07T03:10:27.924Z,15.80
2023-05-07T03:12:56.478Z,15.80
2023-05-07T03:15:25.081Z,15.70
2023-05-07T03:17:53.555Z,15.70
2023-05-07T03:20:22.188Z,15.70
2023-05-07T03:22:52.002Z,15.70
2023-05-07T03:25:20.275Z,15.70
2023-05-07T03:27:48.474Z,15.70
2023-05-07T03:30:16.974Z,15.70
2023-05-07T03:32:45.392Z,15.70
2023-05-07T03:35:13.698Z,15.70
2023-05-07T03:37:42.437Z,15.70
2023-05-07T03:40:13.685Z,15.60
2023-05-07T03:42:43.362Z,15.60
2023-05-07T03:45:12.164Z,15.60
2023-05-07T03:47:40.339Z,15.60
2023-05-07T03:50:09.513Z,15.60
2023-05-07T03:52:38.214Z,15.60
2023-05-07T03:55:07.248Z,15.40
2023-05-07T03:57:36.822Z,15.50
2023-05-07T04:00:06.634Z,15.50
2023-05-07T04:02:35.504Z,15.50
2023-05-07T04:05:03.833Z,15.50
2023-05-07T04:07:32.116Z,15.40
2023-05-07T04:10:00.339Z,15.40
2023-05-07T04:12:28.526Z,15.40
2023-05-07T04:14:58.323Z,15.40
2023-05-07T04:17:26.731Z,15.40
2023-05-07T04:19:55.208Z,15.40
2023-05-07T04:22:23.437Z,15.40
2023-05-07T04:24:52.360Z,15.40
2023-05-07T04:27:21.354Z,15.40
2023-05-07T04:29:49.663Z,15.40
2023-05-07T04:32:19.480Z,15.40
2023-05-07T04:34:50.608Z,15.40
2023-05-07T04:37:19.058Z,15.50
2023-05-07T04:39:47.630Z,15.50
2023-05-07T04:42:17.937Z,15.50
2023-05-07T04:44:47.159Z,15.50
2023-05-07T04:47:15.385Z,15.60
2023-05-07T04:49:45.074Z,15.60
2023-05-07T04:52:13.233Z,15.60
2023-05-07T04:54:41.426Z,15.60
2023-05-07T04:57:09.716Z,15.70
2023-05-07T04:59:38.197Z,15.70
2023-05-07T05:02:06.431Z,15.70
2023-05-07T05:04:34.938Z,15.70
2023-05-07T05:07:05.535Z,15.80
2023-05-07T05:09:33.956Z,15.70
2023-05-07T05:12:02.511Z,15.80
2023-05-07T05:14:32.091Z,15.80
2023-05-07T05:17:00.654Z,15.80
2023-05-07T05:19:29.152Z,15.90
2023-05-07T05:21:57.363Z,15.90
2023-05-07T05:24:27.062Z,15.90
2023-05-07T05:26:55.764Z,16.00
2023-05-07T05:29:24.374Z,16.00
2023-05-07T05:31:52.674Z,16.00
2023-05-07T05:34:22.961Z,16.00
2023-05-07T05:36:51.274Z,16.10
2023-05-07T05:39:19.717Z,16.10
2023-05-07T05:41:49.606Z,16.20
2023-05-07T05:44:17.881Z,16.20
2023-05-07T05:46:46.454Z,16.20
2023-05-07T05:49:14.695Z,16.30
2023-05-07T05:51:42.912Z,16.30
2023-05-07T05:54:11.140Z,16.30
2023-05-07T05:56:39.620Z,16.40
2023-05-07T05:59:09.425Z,16.40
2023-05-07T06:01:37.925Z,16.50
2023-05-07T06:04:06.838Z,16.50
2023-05-07T06:06:35.114Z,16.60
2023-05-07T06:09:03.384Z,16.60
2023-05-07T06:11:31.671Z,16.60
2023-05-07T06:13:59.959Z,16.70
2023-05-07T06:16:29.870Z,16.70
2023-05-07T06:18:58.512Z,16.80
2023-05-07T06:21:26.795Z,16.80
2023-05-07T06:23:55.920Z,16.80
2023-05-07T06:26:24.192Z,16.90
2023-05-07T06:28:52.704Z,16.90
2023-05-07T06:31:22.536Z,17.00
2023-05-07T06:33:52.674Z,17.10
2023-05-07T06:36:20.933Z,17.10
2023-05-07T06:38:49.074Z,17.20
2023-05-07T06:41:17.453Z,17.20
2023-05-07T06:43:45.710Z,17.40
2023-05-07T06:46:14.084Z,17.30
2023-05-07T06:48:47.108Z,17.40
2023-05-07T06:51:16.975Z,17.40
2023-05-07T06:53:45.436Z,17.40
2023-05-07T06:56:13.616Z,17.50
2023-05-07T06:58:42.014Z,17.50
2023-05-07T07:01:10.809Z,17.60
2023-05-07T07:03:39.149Z,17.60
2023-05-07T07:06:08.023Z,17.70
2023-05-07T07:08:39.834Z,17.70
2023-05-07T07:11:08.336Z,17.70
2023-05-07T07:13:36.643Z,17.70
2023-05-07T07:16:05.292Z,17.80
2023-05-07T07:18:33.576Z,17.80
2023-05-07T07:21:01.771Z,17.80
2023-05-07T07:23:30.425Z,17.80
2023-05-07T07:26:00.611Z,17.80
2023-05-07T07:28:29.075Z,17.90
2023-05-07T07:30:57.780Z,17.90
2023-05-07T07:33:26.201Z,17.90
2023-05-07T07:35:54.712Z,18.00
2023-05-07T07:38:22.926Z,18.00
2023-05-07T07:40:51.471Z,18.00
2023-05-07T07:43:21.260Z,18.10
2023-05-07T07:45:49.562Z,18.10
2023-05-07T07:48:17.894Z,18.20
2023-05-07T07:50:46.733Z,18.20
2023-05-07T07:53:22.677Z,18.30
2023-05-07T07:55:51.013Z,18.50
2023-05-07T07:58:20.704Z,18.40
2023-05-07T08:00:49.163Z,18.50
2023-05-07T08:03:17.855Z,18.60
2023-05-07T08:05:46.209Z,18.60
2023-05-07T08:08:14.485Z,18.80
2023-05-07T08:10:42.815Z,18.80
2023-05-07T08:13:11.194Z,18.90
2023-05-07T08:15:40.968Z,18.90
2023-05-07T08:18:09.279Z,18.90
2023-05-07T08:20:40.405Z,19.00
2023-05-07T08:23:08.879Z,19.00
2023-05-07T08:25:38.346Z,19.10
2023-05-07T08:28:09.041Z,19.20
2023-05-07T08:30:38.203Z,19.20
2023-05-07T08:33:07.973Z,19.20
2023-05-07T08:35:36.380Z,19.30
2023-05-07T08:38:05.021Z,19.40
2023-05-07T08:40:39.230Z,19.40
2023-05-07T08:43:08.411Z,19.50
2023-05-07T08:45:37.256Z,19.60
2023-05-07T08:48:11.031Z,19.50
2023-05-07T08:50:39.905Z,19.60
2023-05-07T08:53:08.460Z,19.60
2023-05-07T08:55:36.796Z,19.80
2023-05-07T08:58:05.647Z,19.70
2023-05-07T09:00:34.796Z,19.70
2023-05-07T09:03:03.883Z,19.80
2023-05-07T09:05:33.460Z,19.90
2023-05-07T09:08:01.905Z,19.90
2023-05-07T09:10:32.186Z,20.00
2023-05-07T09:13:00.732Z,20.10
2023-05-07T09:15:50.462Z,20.10
2023-05-07T09:18:18.953Z,20.20
2023-05-07T09:20:48.657Z,20.20
2023-05-07T09:23:16.892Z,20.30
2023-05-07T09:25:45.260Z,20.30
2023-05-07T09:28:13.848Z,20.40
2023-05-07T09:30:42.164Z,20.50
2023-05-07T09:33:10.539Z,20.50
2023-05-07T09:35:40.160Z,20.60
2023-05-07T09:38:10.401Z,20.60
2023-05-07T09:40:38.692Z,20.60
2023-05-07T09:43:15.097Z,20.70
2023-05-07T09:45:43.582Z,20.80
2023-05-07T09:48:12.912Z,20.90
2023-05-07T09:50:50.360Z,20.90
2023-05-07T09:53:20.476Z,21.10
2023-05-07T09:55:49.266Z,21.20
2023-05-07T09:58:18.407Z,21.30
2023-05-07T10:00:47.445Z,21.30
2023-05-07T10:03:17.960Z,21.30
2023-05-07T10:05:48.367Z,21.40
2023-05-07T10:08:18.161Z,21.40
2023-05-07T10:10:48.210Z,21.40
2023-05-07T10:13:16.624Z,21.50
2023-05-07T10:15:47.311Z,21.50
2023-05-07T10:18:17.797Z,21.60
2023-05-07T10:20:48.963Z,21.70
2023-05-07T10:23:25.383Z,21.70
2023-05-07T10:26:00.764Z,21.80
2023-05-07T10:28:31.039Z,21.90
2023-05-07T10:31:09.709Z,22.00
2023-05-07T10:33:39.547Z,22.00
2023-05-07T10:36:08.929Z,22.10
2023-05-07T10:38:38.078Z,22.10
2023-05-07T10:41:08.949Z,22.10
2023-05-07T10:43:46.941Z,22.30
2023-05-07T10:46:18.654Z,22.40
2023-05-07T10:49:09.199Z,22.50
2023-05-07T10:51:37.927Z,22.60
2023-05-07T10:54:30.210Z,22.70
2023-05-07T10:57:36.554Z,22.90
2023-05-07T11:00:07.003Z,23.00
2023-05-07T11:03:13.080Z,23.10
2023-05-07T11:05:42.013Z,23.10
2023-05-07T11:08:11.582Z,23.20
2023-05-07T11:10:54.922Z,23.30
2023-05-07T11:13:46.510Z,23.30
2023-05-07T11:16:22.443Z,23.40
2023-05-07T11:18:52.228Z,23.50
2023-05-07T11:21:35.690Z,23.70
2023-05-07T11:24:05.154Z,23.80
2023-05-07T11:26:44.541Z,24.00
2023-05-07T11:29:15.850Z,24.10
2023-05-07T11:31:44.486Z,24.20
2023-05-07T11:34:14.047Z,24.20
2023-05-07T11:36:48.569Z,24.20
2023-05-07T11:39:37.000Z,24.20
2023-05-07T11:42:05.511Z,24.20
2023-05-07T11:44:47.009Z,24.10
2023-05-07T11:47:20.274Z,24.10
2023-05-07T11:49:49.977Z,24.00
2023-05-07T11:52:19.837Z,24.00
2023-05-07T11:54:51.906Z,24.00
2023-05-07T11:57:20.959Z,23.90
2023-05-07T11:59:54.598Z,23.90
2023-05-07T12:02:23.098Z,23.80
2023-05-07T12:04:51.906Z,23.80
2023-05-07T12:07:20.948Z,23.80
2023-05-07T12:09:49.845Z,23.80
2023-05-07T12:12:18.426Z,23.70
2023-05-07T12:14:47.999Z,23.70
2023-05-07T12:17:19.342Z,23.70
2023-05-07T12:19:48.063Z,23.70
2023-05-07T12:22:16.777Z,23.70
2023-05-07T12:24:49.038Z,23.60
2023-05-07T12:27:18.641Z,23.60
2023-05-07T12:29:48.268Z,23.60
2023-05-07T12:32:19.566Z,23.60
2023-05-07T12:34:48.369Z,23.50
2023-05-07T12:37:16.669Z,23.50
2023-05-07T12:39:50.192Z,23.50
2023-05-07T12:42:24.454Z,23.50
2023-05-07T12:44:53.234Z,23.50
2023-05-07T12:47:23.164Z,23.40
2023-05-07T12:49:51.706Z,23.40
2023-05-07T12:52:19.997Z,23.40
2023-05-07T12:54:49.904Z,23.30
2023-05-07T12:57:22.720Z,23.30
2023-05-07T12:59:51.033Z,23.20
2023-05-07T13:02:19.631Z,23.10
2023-05-07T13:04:49.175Z,23.00
2023-05-07T13:07:17.477Z,22.90
2023-05-07T13:09:45.849Z,22.80
2023-05-07T13:12:14.302Z,22.70
2023-05-07T13:14:42.728Z,22.70
2023-05-07T13:17:11.035Z,22.60
2023-05-07T13:19:39.608Z,22.50
2023-05-07T13:22:09.494Z,22.40
2023-05-07T13:24:38.114Z,22.50
2023-05-07T13:27:06.645Z,22.40
2023-05-07T13:29:35.223Z,22.40
2023-05-07T13:32:03.606Z,22.30
2023-05-07T13:34:31.892Z,22.30
2023-05-07T13:37:00.241Z,22.20
2023-05-07T13:39:30.057Z,22.10
2023-05-07T13:41:58.438Z,22.00
2023-05-07T13:44:26.713Z,22.00
2023-05-07T13:46:55.096Z,22.00
2023-05-07T13:49:24.135Z,21.90
2023-05-07T13:51:52.492Z,22.00
2023-05-07T13:54:20.763Z,22.00
2023-05-07T13:56:50.605Z,22.10
2023-05-07T13:59:18.780Z,22.10
2023-05-07T14:01:47.012Z,22.20
2023-05-07T14:04:15.506Z,22.30
2023-05-07T14:06:43.804Z,22.40
2023-05-07T14:09:14.167Z,22.40
2023-05-07T14:11:42.648Z,22.40
2023-05-07T14:14:12.820Z,22.40
2023-05-07T14:16:41.190Z,22.40
2023-05-07T14:19:09.421Z,22.40
2023-05-07T14:21:37.626Z,22.40
2023-05-07T14:24:06.376Z,22.30
2023-05-07T14:26:34.966Z,22.30
2023-05-07T14:29:03.352Z,22.10
2023-05-07T14:31:35.816Z,22.20
2023-05-07T14:34:04.191Z,22.10
2023-05-07T14:36:33.027Z,22.00
2023-05-07T14:39:01.386Z,22.00
2023-05-07T14:41:29.701Z,22.00
2023-05-07T14:43:59.751Z,21.90
2023-05-07T14:46:28.263Z,21.90
2023-05-07T14:48:58.635Z,21.90
2023-05-07T14:51:29.050Z,21.90
2023-05-07T14:53:57.426Z,21.90
2023-05-07T14:56:25.752Z,21.90
2023-05-07T14:58:54.062Z,21.90
2023-05-07T15:01:22.895Z,21.90
2023-05-07T15:03:51.585Z,21.80
2023-05-07T15:06:21.294Z,21.70
2023-05-07T15:08:49.900Z,21.60
2023-05-07T15:11:18.359Z,21.40
2023-05-07T15:13:46.615Z,21.30
2023-05-07T15:16:15.205Z,21.20
2023-05-07T15:18:43.763Z,21.20
2023-05-07T15:21:12.189Z,21.20
2023-05-07T15:23:42.257Z,21.10
2023-05-07T15:26:10.645Z,21.20
2023-05-07T15:28:40.453Z,21.20
2023-05-07T15:31:10.285Z,21.30
2023-05-07T15:33:38.564Z,21.40
2023-05-07T15:36:07.720Z,21.50
2023-05-07T15:38:36.332Z,21.50
2023-05-07T15:41:06.187Z,21.60
2023-05-07T15:43:34.557Z,21.70
2023-05-07T15:46:02.914Z,21.90
2023-05-07T15:48:31.462Z,22.00
2023-05-07T15:51:01.096Z,22.10
2023-05-07T15:53:29.391Z,22.10
2023-05-07T15:55:57.643Z,22.20
2023-05-07T15:58:29.632Z,22.20
2023-05-07T16:00:57.926Z,22.30
2023-05-07T16:03:26.891Z,22.30
2023-05-07T16:05:57.928Z,22.30
2023-05-07T16:08:26.228Z,22.30
2023-05-07T16:10:54.507Z,22.40
2023-05-07T16:13:24.781Z,22.40
2023-05-07T16:15:59.430Z,22.40
2023-05-07T16:18:28.185Z,22.40
2023-05-07T16:20:57.963Z,22.40
2023-05-07T16:23:26.273Z,22.30
2023-05-07T16:25:54.856Z,22.40
2023-05-07T16:28:25.462Z,22.40
2023-05-07T16:30:54.005Z,22.40
2023-05-07T16:33:24.055Z,22.40
2023-05-07T16:35:55.808Z,22.40
2023-05-07T16:38:24.189Z,22.40
2023-05-07T16:40:52.451Z,22.20
2023-05-07T16:43:20.645Z,22.40
2023-05-07T16:45:48.938Z,22.30
2023-05-07T16:48:18.618Z,22.30
2023-05-07T16:50:50.478Z,22.20
2023-05-07T16:53:18.749Z,22.10
2023-05-07T16:55:47.140Z,22.10
2023-05-07T16:58:15.584Z,22.00
2023-05-07T17:00:50.658Z,22.00
2023-05-07T17:03:20.060Z,21.90
2023-05-07T17:05:49.987Z,21.90
2023-05-07T17:08:18.425Z,21.90
2023-05-07T17:10:46.765Z,21.80
2023-05-07T17:13:15.216Z,21.80
2023-05-07T17:15:46.391Z,21.80
2023-05-07T17:18:15.129Z,21.70
2023-05-07T17:20:43.438Z,21.80
2023-05-07T17:23:13.323Z,21.70
2023-05-07T17:25:45.598Z,21.70
2023-05-07T17:28:14.159Z,21.60
2023-05-07T17:30:42.561Z,21.50
2023-05-07T17:33:20.788Z,21.50
2023-05-07T17:35:50.088Z,21.50
2023-05-07T17:38:19.805Z,21.50
2023-05-07T17:40:48.748Z,21.50
2023-05-07T17:43:17.539Z,21.40
2023-05-07T17:45:45.800Z,21.40
2023-05-07T17:48:14.097Z,21.40
2023-05-07T17:50:42.819Z,21.40
2023-05-07T17:53:11.226Z,21.40
2023-05-07T17:55:44.726Z,21.40
2023-05-07T17:58:13.670Z,21.40
2023-05-07T18:00:41.900Z,21.30
2023-05-07T18:03:10.340Z,21.30
2023-05-07T18:05:39.951Z,21.30
2023-05-07T18:08:08.778Z,21.30
2023-05-07T18:10:37.685Z,21.30
2023-05-07T18:13:07.746Z,21.20
2023-05-07T18:15:36.450Z,21.20
2023-05-07T18:18:05.888Z,21.10
2023-05-07T18:20:37.570Z,21.00
2023-05-07T18:23:05.878Z,21.10
2023-05-07T18:25:34.372Z,21.10
2023-05-07T18:28:02.651Z,21.00
2023-05-07T18:30:32.365Z,21.00
2023-05-07T18:33:00.942Z,21.00
2023-05-07T18:35:29.574Z,20.90
2023-05-07T18:37:57.888Z,20.90
2023-05-07T18:40:26.545Z,20.90
2023-05-07T18:42:55.866Z,20.80
2023-05-07T18:45:24.267Z,20.80
2023-05-07T18:47:54.169Z,20.70
2023-05-07T18:50:22.488Z,20.80
2023-05-07T18:52:51.023Z,20.60
2023-05-07T18:55:21.781Z,20.60
2023-05-07T18:57:50.244Z,20.60
2023-05-07T19:00:18.972Z,20.50
2023-05-07T19:02:47.218Z,20.50
2023-05-07T19:05:18.898Z,20.40
2023-05-07T19:07:47.965Z,20.40
2023-05-07T19:10:17.296Z,20.40
2023-05-07T19:12:46.528Z,20.30
2023-05-07T19:15:14.805Z,20.30
2023-05-07T19:17:43.404Z,20.30
2023-05-07T19:20:12.594Z,20.20
2023-05-07T19:22:43.482Z,20.20
2023-05-07T19:25:12.278Z,20.10
2023-05-07T19:27:40.699Z,20.10
2023-05-07T19:30:10.732Z,20.10
2023-05-07T19:32:39.984Z,20.00
2023-05-07T19:35:09.162Z,19.90
2023-05-07T19:37:38.243Z,19.90
2023-05-07T19:40:09.487Z,19.80
2023-05-07T19:42:37.966Z,19.80
2023-05-07T19:45:07.125Z,19.70
2023-05-07T19:47:35.701Z,19.70
2023-05-07T19:50:04.377Z,19.70
2023-05-07T19:52:32.592Z,19.60
2023-05-07T19:55:00.922Z,19.50
2023-05-07T19:57:30.624Z,19.50
2023-05-07T19:59:59.364Z,19.50
2023-05-07T20:02:27.732Z,19.40
2023-05-07T20:04:56.588Z,19.40
2023-05-07T20:07:25.295Z,19.40
2023-05-07T20:09:53.554Z,19.30
2023-05-07T20:12:22.177Z,19.20
2023-05-07T20:14:51.828Z,19.20
2023-05-07T20:17:20.246Z,19.20
2023-05-07T20:19:49.038Z,19.20
2023-05-07T20:22:17.328Z,19.10
2023-05-07T20:24:45.572Z,19.10
2023-05-07T20:27:13.884Z,19.10
2023-05-07T20:29:42.311Z,19.10
2023-05-07T20:32:12.112Z,19.10
2023-05-07T20:34:40.681Z,19.00
2023-05-07T20:37:11.792Z,19.00
2023-05-07T20:39:40.135Z,19.00
2023-05-07T20:42:08.474Z,18.90
2023-05-07T20:44:37.024Z,18.90
2023-05-07T20:47:05.770Z,18.80
2023-05-07T20:49:35.862Z,18.80
2023-05-07T20:52:04.214Z,18.80
2023-05-07T20:54:32.685Z,18.80
2023-05-07T20:57:01.242Z,18.80
2023-05-07T20:59:29.623Z,18.80
2023-05-07T21:01:57.847Z,18.80
2023-05-07T21:04:26.162Z,18.80
2023-05-07T21:06:55.873Z,18.80
2023-05-07T21:09:25.510Z,18.80
2023-05-07T21:11:54.495Z,18.80
2023-05-07T21:14:23.040Z,18.80
2023-05-07T21:16:51.289Z,18.80
2023-05-07T21:19:19.855Z,18.70
2023-05-07T21:21:48.342Z,18.70
2023-05-07T21:24:17.945Z,18.80
2023-05-07T21:26:46.549Z,18.70
2023-05-07T21:29:14.820Z,18.70
2023-05-07T21:31:43.141Z,18.70
2023-05-07T21:34:11.464Z,18.70
2023-05-07T21:36:39.826Z,18.70
2023-05-07T21:39:08.850Z,18.60
2023-05-07T21:41:38.989Z,18.60
2023-05-07T21:44:07.473Z,18.60
2023-05-07T21:46:35.874Z,18.50
2023-05-07T21:49:04.668Z,18.50
2023-05-07T21:51:35.752Z,18.50
2023-05-07T21:54:03.980Z,18.40
2023-05-07T21:56:32.432Z,18.40
2023-05-07T21:59:02.104Z,18.40
2023-05-07T22:01:30.396Z,18.40
2023-05-07T22:03:58.667Z,18.50
2023-05-07T22:06:27.314Z,18.40
2023-05-07T22:08:55.636Z,18.40
2023-05-07T22:11:23.935Z,18.40
2023-05-07T22:13:52.267Z,18.40
2023-05-07T22:16:21.931Z,18.40
2023-05-07T22:18:50.318Z,18.40
2023-05-07T22:21:18.677Z,18.40
2023-05-07T22:23:46.958Z,18.40
2023-05-07T22:26:15.511Z,18.30
2023-05-07T22:28:44.150Z,18.30
2023-05-07T22:31:12.526Z,18.30
2023-05-07T22:33:42.159Z,18.30
2023-05-07T22:36:10.783Z,18.30
2023-05-07T22:38:39.090Z,18.30
2023-05-07T22:41:07.349Z,18.20
2023-05-07T22:43:35.820Z,18.30
2023-05-07T22:46:04.341Z,18.30
2023-05-07T22:48:34.051Z,18.30
2023-05-07T22:51:04.144Z,18.30
2023-05-07T22:53:32.380Z,18.20
2023-05-07T22:56:05.139Z,18.30
2023-05-07T22:58:33.382Z,18.30
2023-05-07T23:01:02.430Z,18.20
2023-05-07T23:03:30.979Z,18.20
2023-05-07T23:05:59.144Z,18.20
2023-05-07T23:08:28.893Z,18.20
2023-05-07T23:10:57.072Z,18.20
2023-05-07T23:13:25.495Z,18.20
2023-05-07T23:15:53.957Z,18.30
2023-05-07T23:18:22.508Z,18.20
2023-05-07T23:20:50.798Z,18.20
2023-05-07T23:23:19.060Z,18.20
2023-05-07T23:25:48.934Z,18.20
2023-05-07T23:28:17.166Z,18.20
2023-05-07T23:30:45.749Z,18.10
2023-05-07T23:33:14.043Z,18.10
2023-05-07T23:35:42.534Z,18.00
2023-05-07T23:38:11.083Z,17.90
2023-05-07T23:40:39.630Z,17.90
2023-05-07T23:43:09.622Z,17.80
2023-05-07T23:45:37.796Z,17.80
2023-05-07T23:48:06.589Z,17.80
2023-05-07T23:50:35.167Z,17.80
2023-05-07T23:53:03.560Z,17.80
2023-05-07T23:55:32.046Z,17.70
2023-05-07T23:58:00.356Z,17.70
